Time;durP1;ratioP1;P1;durP2;ratioP2;P2;SDS_P1;SDS_P2;PMS_P1;PMS_P2;Temp;Humidity;BMP_temperature;BMP_pressure;BME280_temperature;BME280_humidity;BME280_pressure;Samples;Min_cycle;Max_cycle;Signal;HPM_P1;HPM_P2
2023/04/22 00:00:05;;;;;;;13.48;4.95;;;;;;;13.74;75.45;99450.47;3125437;28;20106;-69
2023/04/22 00:01:36;;;;;;;9.55;6.00;;;;;;;13.74;75.34;99453.06;3130177;28;20071;-69
2023/04/22 00:03:08;;;;;;;12.55;6.28;;;;;;;13.73;75.71;99454.03;3132023;28;20066;-69
2023/04/22 00:04:41;;;;;;;11.15;5.55;;;;;;;13.77;75.44;99461.56;3133478;28;20052;-69
2023/04/22 00:06:14;;;;;;;10.57;7.45;;;;;;;13.79;75.41;99462.31;3130132;28;20115;-69
2023/04/22 00:07:46;;;;;;;10.23;6.65;;;;;;;13.79;75.53;99459.69;3135392;28;20057;-69
2023/04/22 00:09:18;;;;;;;12.70;6.43;;;;;;;13.79;75.60;99456.25;3134311;28;20082;-69
2023/04/22 00:10:50;;;;;;;11.80;6.68;;;;;;;13.82;75.46;99461.28;3130232;28;20128;-70
2023/04/22 00:12:22;;;;;;;12.73;6.45;;;;;;;13.81;75.50;99452.59;3129987;28;20050;-70
2023/04/22 00:13:54;;;;;;;10.50;6.38;;;;;;;13.80;75.56;99458.75;3135213;28;20551;-70
2023/04/22 00:15:26;;;;;;;15.10;7.53;;;;;;;13.77;75.41;99445.84;3130302;28;20603;-70
2023/04/22 00:16:58;;;;;;;10.35;6.40;;;;;;;13.82;75.49;99456.06;3133960;28;20052;-70
2023/04/22 00:18:30;;;;;;;13.88;8.60;;;;;;;13.75;75.57;99436.41;3134599;28;20469;-70
2023/04/22 00:20:03;;;;;;;18.85;11.45;;;;;;;13.83;75.33;99447.25;3131027;28;20587;-70
2023/04/22 00:21:36;;;;;;;17.38;12.00;;;;;;;13.89;75.63;99457.31;3136121;28;20048;-71
2023/04/22 00:23:07;;;;;;;17.67;10.65;;;;;;;13.87;74.98;99451.34;3134741;28;20164;-70
2023/04/22 00:24:39;;;;;;;15.30;10.57;;;;;;;13.88;75.21;99450.41;3134602;28;20590;-70
2023/04/22 00:26:11;;;;;;;23.90;14.45;;;;;;;13.81;74.98;99441.25;3135256;28;20164;-70
2023/04/22 00:27:43;;;;;;;26.65;13.73;;;;;;;13.78;74.79;99444.06;3134154;28;20141;-69
2023/04/22 00:29:15;;;;;;;24.92;14.35;;;;;;;13.76;74.70;99438.97;3131296;28;20055;-70
2023/04/22 00:30:47;;;;;;;26.27;15.50;;;;;;;13.78;74.63;99444.94;3131098;28;20115;-71
2023/04/22 00:32:18;;;;;;;23.40;14.10;;;;;;;13.77;74.56;99445.84;3134035;28;20304;-71
2023/04/22 00:33:50;;;;;;;22.10;14.32;;;;;;;13.76;74.38;99441.56;3135268;28;20605;-70
2023/04/22 00:35:21;;;;;;;25.55;14.98;;;;;;;13.76;74.50;99443.34;3135101;28;20143;-70
2023/04/22 00:36:55;;;;;;;24.90;14.90;;;;;;;13.73;74.39;99444.38;3133063;28;20063;-71
2023/04/22 00:38:28;;;;;;;23.42;14.77;;;;;;;13.67;74.83;99433.47;3138206;28;20056;-71
2023/04/22 00:40:00;;;;;;;21.85;14.93;;;;;;;13.75;74.69;99436.41;3136573;28;20635;-71
2023/04/22 00:41:32;;;;;;;25.63;15.45;;;;;;;13.73;74.42;99433.91;3137523;28;20532;-71
2023/04/22 00:43:04;;;;;;;24.92;15.13;;;;;;;13.77;74.52;99442.41;3136960;28;20117;-72
2023/04/22 00:44:35;;;;;;;23.92;13.77;;;;;;;13.74;74.31;99437.38;3132509;28;20056;-70
2023/04/22 00:46:08;;;;;;;28.17;14.98;;;;;;;13.79;74.15;99443.16;3136706;28;20060;-70
2023/04/22 00:47:41;;;;;;;24.35;13.60;;;;;;;13.79;74.29;99448.41;3133205;28;20488;-70
2023/04/22 00:49:15;;;;;;;26.30;15.48;;;;;;;13.79;74.08;99448.41;3137255;28;20595;-69
2023/04/22 00:50:46;;;;;;;;;;;;;;;13.72;74.09;99445.31;3125512;28;20049;-70
2023/04/22 00:52:19;;;;;;;27.27;13.68;;;;;;;13.72;74.17;99450.53;3117381;28;20095;-70
2023/04/22 00:53:51;;;;;;;22.98;14.20;;;;;;;13.74;74.25;99456.53;3136209;28;20048;-71
2023/04/22 00:55:22;;;;;;;21.95;13.25;;;;;;;13.71;74.18;99448.88;3135828;28;20518;-71
2023/04/22 00:56:55;;;;;;;23.67;14.63;;;;;;;13.76;74.08;99462.50;3135288;28;20056;-71
2023/04/22 00:58:29;;;;;;;25.77;14.98;;;;;;;13.75;74.17;99460.81;3136517;28;20052;-71
2023/04/22 01:00:01;;;;;;;22.90;14.73;;;;;;;13.71;73.91;99454.09;3133863;28;20060;-71
2023/04/22 01:01:33;;;;;;;26.67;14.32;;;;;;;13.77;74.00;99466.78;3131047;28;20067;-71
2023/04/22 01:03:07;;;;;;;20.88;13.07;;;;;;;13.80;74.14;99468.38;3132286;28;20202;-73
2023/04/22 01:04:38;;;;;;;20.33;13.63;;;;;;;13.45;74.18;99410.44;3134900;28;20266;-72
2023/04/22 01:06:10;;;;;;;26.67;13.40;;;;;;;13.70;74.23;99455.06;3131188;28;20045;-72
2023/04/22 01:07:42;;;;;;;23.92;14.50;;;;;;;13.78;73.97;99465.88;3137045;28;20059;-72
2023/04/22 01:09:15;;;;;;;24.17;14.18;;;;;;;13.69;74.07;99449.91;3137124;28;20556;-72
2023/04/22 01:10:47;;;;;;;22.60;14.30;;;;;;;13.73;73.78;99465.31;3130222;28;20060;-72
2023/04/22 01:12:19;;;;;;;26.52;13.40;;;;;;;13.75;73.94;99465.22;3128655;28;20514;-72
2023/04/22 01:13:51;;;;;;;24.45;13.88;;;;;;;13.74;74.03;99467.00;3132436;28;20059;-72
2023/04/22 01:15:23;;;;;;;20.98;13.40;;;;;;;13.74;74.12;99461.75;3137549;28;20060;-72
2023/04/22 01:16:56;;;;;;;24.25;12.85;;;;;;;13.45;74.06;99410.44;3135600;28;20117;-70
2023/04/22 01:18:28;;;;;;;21.70;12.80;;;;;;;13.73;73.87;99461.88;3125386;28;20049;-71
2023/04/22 01:20:02;;;;;;;24.13;14.32;;;;;;;13.74;73.86;99460.91;3132499;28;20056;-73
2023/04/22 01:21:36;;;;;;;18.45;12.75;;;;;;;13.76;74.20;99459.06;3137316;28;20087;-70
2023/04/22 01:23:17;;;;;;;25.25;13.48;;;;;;;13.76;73.72;99465.13;3112836;28;20092;-72
2023/04/22 01:24:49;;;;;;;23.20;13.02;;;;;;;13.75;73.87;99463.44;3112554;28;20777;-69
2023/04/22 01:26:21;;;;;;;21.73;12.15;;;;;;;13.73;73.79;99457.47;3136209;28;20052;-69
2023/04/22 01:27:53;;;;;;;24.83;13.05;;;;;;;13.76;73.84;99459.88;3132044;28;20545;-69
2023/04/22 01:29:25;;;;;;;21.90;13.27;;;;;;;13.72;73.47;99445.31;3130066;28;20064;-69
2023/04/22 01:30:57;;;;;;;20.80;12.67;;;;;;;13.75;73.57;99449.50;3133859;28;20078;-69
2023/04/22 01:32:31;;;;;;;20.27;12.88;;;;;;;13.74;73.89;99453.91;3136156;28;20615;-72
2023/04/22 01:34:02;;;;;;;20.65;11.35;;;;;;;13.73;73.71;99448.78;3135902;28;20048;-70
2023/04/22 01:35:36;;;;;;;20.83;12.80;;;;;;;13.73;73.72;99451.41;3126195;28;20106;-70
2023/04/22 01:37:08;;;;;;;20.73;12.93;;;;;;;13.73;73.59;99451.41;3131705;28;20055;-69
2023/04/22 01:38:42;;;;;;;21.48;12.35;;;;;;;13.75;73.51;99457.34;3135903;28;20048;-70
2023/04/22 01:40:18;;;;;;;20.42;12.02;;;;;;;13.74;73.57;99453.91;3135539;28;20056;-69
2023/04/22 01:41:50;;;;;;;17.77;11.35;;;;;;;13.74;73.71;99456.53;3125243;28;20055;-68
2023/04/22 01:43:23;;;;;;;23.90;12.55;;;;;;;13.74;73.62;99460.91;3131907;28;20052;-69
2023/04/22 01:44:55;;;;;;;21.23;12.20;;;;;;;13.72;73.47;99457.56;3136724;28;20048;-68
2023/04/22 01:46:26;;;;;;;18.77;11.73;;;;;;;13.69;73.39;99453.34;3136204;28;20052;-69
2023/04/22 01:47:58;;;;;;;22.02;12.68;;;;;;;13.67;73.64;99457.88;3132490;28;20482;-68
2023/04/22 01:49:30;;;;;;;20.45;11.57;;;;;;;13.63;73.72;99458.97;3126900;28;20080;-68
2023/04/22 01:51:02;;;;;;;20.05;11.52;;;;;;;13.61;74.03;99455.63;3127359;28;20492;-68
2023/04/22 01:52:35;;;;;;;24.95;11.93;;;;;;;13.56;74.10;99450.69;3129915;28;20084;-68
2023/04/22 01:54:08;;;;;;;20.48;10.65;;;;;;;13.52;74.21;99454.44;3137258;28;20405;-68
2023/04/22 01:55:42;;;;;;;19.73;11.50;;;;;;;13.47;74.27;99446.03;3136013;28;20827;-67
2023/04/22 01:57:15;;;;;;;19.33;10.95;;;;;;;13.44;74.53;99451.47;3125140;28;20157;-67
2023/04/22 01:58:47;;;;;;;18.33;10.30;;;;;;;13.41;74.74;99451.66;3137429;28;20086;-67
2023/04/22 02:00:19;;;;;;;18.10;10.07;;;;;;;13.34;74.72;99437.25;3136704;28;20085;-70
2023/04/22 02:01:50;;;;;;;18.88;8.88;;;;;;;13.37;75.07;99442.31;3132318;28;20122;-71
2023/04/22 02:03:22;;;;;;;16.00;8.73;;;;;;;13.31;74.94;99434.84;3135568;28;20677;-70
2023/04/22 02:04:53;;;;;;;18.23;9.63;;;;;;;13.33;75.36;99444.25;3137008;28;20110;-71
2023/04/22 02:06:24;;;;;;;14.15;8.90;;;;;;;13.31;75.24;99443.53;3142778;28;20490;-71
2023/04/22 02:07:56;;;;;;;15.18;8.55;;;;;;;13.20;75.21;99432.88;3146125;28;20137;-70
2023/04/22 02:09:29;;;;;;;13.02;8.20;;;;;;;13.16;74.94;99441.81;3145844;28;20597;-71
2023/04/22 02:11:00;;;;;;;13.55;7.95;;;;;;;13.09;75.11;99437.91;3134634;28;20056;-69
2023/04/22 02:12:32;;;;;;;13.82;8.23;;;;;;;13.08;75.37;99441.47;3137855;28;20551;-69
2023/04/22 02:14:05;;;;;;;14.82;9.15;;;;;;;13.04;75.35;99443.41;3145699;28;20109;-70
2023/04/22 02:15:38;;;;;;;17.55;8.73;;;;;;;13.01;76.04;99429.69;3145820;28;20663;-70
2023/04/22 02:17:09;;;;;;;13.48;8.90;;;;;;;13.00;75.92;99428.03;3145403;28;20082;-72
2023/04/22 02:18:41;;;;;;;15.93;9.45;;;;;;;13.04;76.30;99432.13;3145790;28;20584;-70
2023/04/22 02:20:12;;;;;;;16.35;9.48;;;;;;;13.07;76.30;99437.16;3141536;28;20053;-69
2023/04/22 02:21:44;;;;;;;13.10;8.90;;;;;;;13.05;76.33;99431.19;3145508;28;20482;-69
2023/04/22 02:23:16;;;;;;;13.93;8.10;;;;;;;13.06;76.46;99432.88;3145744;28;20049;-70
2023/04/22 02:24:49;;;;;;;16.48;9.30;;;;;;;13.03;76.41;99438.28;3145431;28;20060;-71
2023/04/22 02:26:20;;;;;;;;;;;;;;;12.94;76.39;99443.13;3142687;28;20053;-70
2023/04/22 02:27:52;;;;;;;18.20;8.38;;;;;;;12.94;76.48;99450.97;3145305;28;19920;-72
2023/04/22 02:29:24;;;;;;;18.27;9.50;;;;;;;12.95;76.59;99441.34;3140867;28;20052;-69
2023/04/22 02:30:54;;;;;;;15.65;9.60;;;;;;;12.94;77.00;99437.91;3143450;28;20165;-69
2023/04/22 02:32:26;;;;;;;17.58;9.48;;;;;;;12.90;76.83;99440.81;3145762;28;20237;-71
2023/04/22 02:33:58;;;;;;;14.75;8.63;;;;;;;12.95;76.97;99446.59;3145439;28;20052;-71
2023/04/22 02:35:30;;;;;;;14.40;8.90;;;;;;;12.91;77.02;99442.50;3144220;28;20056;-71
2023/04/22 02:37:02;;;;;;;18.60;9.18;;;;;;;12.81;77.00;99426.53;3140247;28;20049;-72
2023/04/22 02:38:34;;;;;;;17.33;9.30;;;;;;;12.81;77.53;99426.53;3139587;28;20052;-70
2023/04/22 02:40:08;;;;;;;17.35;9.93;;;;;;;12.89;77.20;99439.13;3145235;28;20053;-71
2023/04/22 02:41:40;;;;;;;20.48;10.85;;;;;;;12.88;77.69;99447.91;3140368;28;20146;-71
2023/04/22 02:43:12;;;;;;;16.52;9.18;;;;;;;12.89;77.47;99444.34;3145612;28;20114;-69
2023/04/22 02:44:43;;;;;;;15.63;9.65;;;;;;;12.82;77.75;99430.81;3140883;28;20076;-70
2023/04/22 02:46:16;;;;;;;16.48;10.00;;;;;;;12.90;77.74;99446.03;3136575;28;20048;-71
2023/04/22 02:47:47;;;;;;;14.88;9.18;;;;;;;12.88;77.57;99443.50;3141510;28;20144;-71
2023/04/22 02:49:19;;;;;;;15.00;9.00;;;;;;;12.86;77.81;99442.75;3134839;28;20053;-72
2023/04/22 02:50:51;;;;;;;13.93;9.52;;;;;;;12.84;77.60;99449.88;3133791;28;20048;-72
2023/04/22 02:52:22;;;;;;;14.68;9.20;;;;;;;12.83;77.64;99450.78;3144979;28;20059;-71
2023/04/22 02:53:54;;;;;;;16.08;9.73;;;;;;;12.81;77.77;99452.66;3145480;28;20073;-71
2023/04/22 02:55:27;;;;;;;15.75;9.38;;;;;;;12.80;78.14;99450.97;3142502;28;20053;-72
2023/04/22 02:57:00;;;;;;;;;;;;;;;12.72;77.89;99458.44;3144082;28;20096;-72
2023/04/22 02:58:31;;;;;;;21.88;9.55;;;;;;;12.72;78.01;99455.81;3144897;28;19990;-71
2023/04/22 03:00:04;;;;;;;14.57;8.73;;;;;;;12.73;77.78;99454.88;3145112;28;20453;-70
2023/04/22 03:01:36;;;;;;;13.27;8.90;;;;;;;12.74;78.09;99456.56;3137621;28;20552;-71
2023/04/22 03:03:07;;;;;;;19.50;9.77;;;;;;;12.74;78.03;99453.94;3140745;28;20411;-71
2023/04/22 03:04:39;;;;;;;17.33;10.00;;;;;;;12.67;77.86;99443.03;3142903;28;20141;-71
2023/04/22 03:06:11;;;;;;;16.67;10.32;;;;;;;12.70;78.01;99457.69;3138901;28;20441;-71
2023/04/22 03:07:41;;;;;;;18.23;10.18;;;;;;;12.70;78.39;99455.06;3145455;28;20525;-71
2023/04/22 03:09:13;;;;;;;20.45;10.63;;;;;;;12.66;78.38;99456.16;3144894;28;20150;-71
2023/04/22 03:10:46;;;;;;;15.77;9.88;;;;;;;12.68;78.40;99456.91;3133535;28;20506;-71
2023/04/22 03:12:17;;;;;;;18.73;11.10;;;;;;;12.59;78.49;99441.78;3126943;28;20044;-71
2023/04/22 03:13:49;;;;;;;18.33;9.55;;;;;;;12.59;78.27;99444.41;3144536;28;20552;-71
2023/04/22 03:15:21;;;;;;;22.15;11.32;;;;;;;12.62;78.50;99444.22;3145025;28;20052;-71
2023/04/22 03:16:52;;;;;;;19.45;11.98;;;;;;;12.66;78.48;99453.56;3145354;28;20611;-71
2023/04/22 03:18:24;;;;;;;18.60;10.75;;;;;;;12.63;78.53;99454.59;3133302;28;20053;-71
2023/04/22 03:19:55;;;;;;;20.13;11.43;;;;;;;12.60;78.68;99449.56;3124859;28;20049;-70
2023/04/22 03:21:28;;;;;;;18.92;11.75;;;;;;;12.57;78.38;99441.91;3144395;28;20196;-70
2023/04/22 03:23:00;;;;;;;22.30;12.30;;;;;;;12.58;78.51;99447.97;3145177;28;20079;-71
2023/04/22 03:24:31;;;;;;;19.85;11.68;;;;;;;12.55;78.65;99451.59;3143858;28;20547;-71
2023/04/22 03:26:05;;;;;;;22.85;11.35;;;;;;;12.58;78.36;99450.56;3136677;28;20427;-71
2023/04/22 03:27:36;;;;;;;20.00;11.18;;;;;;;12.37;78.68;99422.16;3141710;28;20080;-72
2023/04/22 03:29:08;;;;;;;24.20;11.75;;;;;;;12.57;78.74;99448.88;3142574;28;20072;-71
2023/04/22 03:30:40;;;;;;;17.20;11.00;;;;;;;12.56;78.70;99450.66;3140182;28;20817;-71
2023/04/22 03:32:12;;;;;;;20.80;11.32;;;;;;;12.56;78.36;99455.03;3144515;28;20565;-70
2023/04/22 03:33:44;;;;;;;17.45;11.18;;;;;;;12.53;78.71;99454.28;3142440;28;20048;-71
2023/04/22 03:35:14;;;;;;;16.98;11.18;;;;;;;12.52;78.64;99460.44;3142893;28;20045;-71
2023/04/22 03:36:46;;;;;;;20.08;11.35;;;;;;;12.52;78.18;99457.00;3145227;28;20129;-71
2023/04/22 03:38:17;;;;;;;17.92;10.45;;;;;;;12.45;78.07;99453.91;3144739;28;20056;-71
2023/04/22 03:39:49;;;;;;;18.50;10.35;;;;;;;12.47;78.09;99459.03;3141100;28;20124;-71
2023/04/22 03:41:25;;;;;;;13.05;8.70;;;;;;;12.44;78.14;99459.22;3140735;28;20049;-71
2023/04/22 03:42:57;;;;;;;12.18;8.75;;;;;;;12.38;77.95;99464.78;3144724;28;20049;-71
2023/04/22 03:44:28;;;;;;;15.77;8.30;;;;;;;12.34;77.57;99463.28;3143009;28;20065;-71
2023/04/22 03:45:59;;;;;;;17.92;8.65;;;;;;;12.28;77.51;99465.31;3144936;28;20105;-71
2023/04/22 03:47:31;;;;;;;13.88;8.68;;;;;;;12.25;77.32;99473.34;3141550;28;20154;-71
2023/04/22 03:49:03;;;;;;;14.93;9.40;;;;;;;12.10;77.14;99452.47;3144934;28;20052;-71
2023/04/22 03:50:35;;;;;;;16.00;9.23;;;;;;;12.19;76.74;99476.28;3134494;28;20053;-70
2023/04/22 03:52:05;;;;;;;13.95;9.70;;;;;;;12.08;76.70;99473.44;3143625;28;20045;-70
2023/04/22 03:53:37;;;;;;;14.27;10.13;;;;;;;12.07;76.71;99475.22;3143192;28;20052;-71
2023/04/22 03:55:09;;;;;;;17.38;9.98;;;;;;;12.11;76.74;99488.09;3141630;28;20052;-71
2023/04/22 03:56:42;;;;;;;15.85;9.32;;;;;;;12.10;76.55;99487.25;3144081;28;20477;-71
2023/04/22 03:58:13;;;;;;;13.02;8.98;;;;;;;12.09;76.54;99490.78;3145121;28;20422;-71
2023/04/22 03:59:45;;;;;;;15.77;9.25;;;;;;;12.05;76.47;99484.91;3144489;28;20049;-71
2023/04/22 04:01:17;;;;;;;16.33;8.57;;;;;;;12.09;76.71;99500.38;3144437;28;20051;-71
2023/04/22 04:02:49;;;;;;;15.73;9.27;;;;;;;12.09;76.38;99496.00;3137883;28;20067;-71
2023/04/22 04:04:22;;;;;;;16.83;9.90;;;;;;;12.00;76.41;99486.91;3144706;28;20441;-71
2023/04/22 04:05:54;;;;;;;16.35;9.45;;;;;;;12.10;76.28;99496.84;3144627;28;20127;-71
2023/04/22 04:07:26;;;;;;;17.05;10.25;;;;;;;12.10;76.43;99496.84;3144733;28;20082;-71
2023/04/22 04:08:57;;;;;;;20.67;10.13;;;;;;;12.04;76.21;99493.66;3140209;28;20045;-72
2023/04/22 04:10:29;;;;;;;19.17;10.32;;;;;;;12.06;76.42;99498.78;3142059;28;20056;-71
2023/04/22 04:12:02;;;;;;;20.38;10.60;;;;;;;12.09;76.12;99500.38;3122770;28;20046;-70
2023/04/22 04:13:34;;;;;;;;;;;;;;;12.01;76.22;99508.66;3144822;28;20143;-71
2023/04/22 04:15:07;;;;;;;18.13;10.60;;;;;;;12.01;76.56;99508.66;3144683;28;19934;-71
2023/04/22 04:16:39;;;;;;;29.23;11.55;;;;;;;11.91;76.52;99481.38;3145042;28;20053;-72
2023/04/22 04:18:10;;;;;;;16.73;10.45;;;;;;;12.00;76.28;99499.13;3144759;28;20055;-71
2023/04/22 04:19:42;;;;;;;22.35;11.50;;;;;;;12.02;76.70;99508.56;3141777;28;20059;-72
2023/04/22 04:21:14;;;;;;;15.68;10.70;;;;;;;12.02;76.62;99511.16;3143516;28;20052;-71
2023/04/22 04:22:46;;;;;;;18.50;10.52;;;;;;;12.02;77.10;99516.38;3143440;28;20059;-71
2023/04/22 04:24:18;;;;;;;22.27;11.20;;;;;;;12.02;77.12;99511.16;3142136;28;20056;-71
2023/04/22 04:25:50;;;;;;;21.65;11.68;;;;;;;12.04;77.17;99516.31;3144676;28;20064;-71
2023/04/22 04:27:24;;;;;;;24.40;13.32;;;;;;;12.05;77.07;99512.78;3144253;28;20080;-72
2023/04/22 04:28:56;;;;;;;20.50;12.20;;;;;;;12.05;77.42;99513.59;3144038;28;20053;-73
2023/04/22 04:30:28;;;;;;;27.60;13.70;;;;;;;12.07;77.42;99510.94;3138492;28;20462;-73
2023/04/22 04:31:59;;;;;;;25.27;13.68;;;;;;;12.09;77.54;99516.88;3144269;28;20142;-72
2023/04/22 04:33:31;;;;;;;21.25;13.20;;;;;;;12.06;77.66;99504.84;3144122;28;20063;-73
2023/04/22 04:35:03;;;;;;;27.77;13.55;;;;;;;12.09;77.60;99509.03;3143162;28;20059;-73
2023/04/22 04:36:35;;;;;;;24.00;13.80;;;;;;;12.11;77.89;99515.03;3144161;28;20048;-73
2023/04/22 04:38:07;;;;;;;26.55;14.35;;;;;;;12.13;78.20;99515.81;3135907;28;20048;-71
2023/04/22 04:39:40;;;;;;;33.15;16.70;;;;;;;12.13;78.43;99515.81;3144702;28;20048;-71
2023/04/22 04:41:13;;;;;;;24.92;14.02;;;;;;;12.12;78.16;99516.72;3138223;28;20045;-71
2023/04/22 04:42:46;;;;;;;28.63;15.02;;;;;;;12.10;78.62;99515.09;3144121;28;20182;-70
2023/04/22 04:44:19;;;;;;;27.42;15.48;;;;;;;12.12;78.66;99515.88;3144522;28;20457;-71
2023/04/22 04:45:51;;;;;;;32.08;15.98;;;;;;;12.14;78.55;99519.25;3144128;28;20110;-71
2023/04/22 04:47:23;;;;;;;25.63;13.70;;;;;;;12.14;79.04;99516.63;3122031;28;20053;-72
2023/04/22 04:48:56;;;;;;;24.65;13.50;;;;;;;12.15;78.80;99521.75;3143708;28;20409;-71
2023/04/22 04:50:27;;;;;;;21.95;13.27;;;;;;;11.81;78.95;99466.19;3135513;28;20127;-70
2023/04/22 04:52:00;;;;;;;27.67;14.20;;;;;;;12.14;78.93;99519.25;3141048;28;20048;-70
2023/04/22 04:53:31;;;;;;;22.55;13.45;;;;;;;12.17;79.39;99519.06;3141800;28;20049;-70
2023/04/22 04:55:03;;;;;;;27.35;12.82;;;;;;;12.22;79.09;99524.88;3144291;28;20048;-71
2023/04/22 04:56:35;;;;;;;25.17;12.05;;;;;;;12.25;79.37;99528.16;3144277;28;20457;-73
2023/04/22 04:58:07;;;;;;;23.92;11.48;;;;;;;12.29;79.38;99521.00;3143897;28;20117;-71
2023/04/22 04:59:39;;;;;;;27.13;11.88;;;;;;;12.32;79.17;99517.38;3144230;28;20126;-70
2023/04/22 05:01:11;;;;;;;24.60;11.55;;;;;;;12.35;79.27;99525.03;3143849;28;20525;-70
2023/04/22 05:02:42;;;;;;;19.42;11.63;;;;;;;12.36;78.87;99514.47;3137366;28;20066;-68
2023/04/22 05:04:14;;;;;;;18.00;11.35;;;;;;;12.39;78.74;99524.75;3143873;28;20105;-70
2023/04/22 05:05:47;;;;;;;22.02;12.00;;;;;;;12.38;78.69;99515.25;3139893;28;20452;-70
2023/04/22 05:07:19;;;;;;;21.10;11.05;;;;;;;12.42;79.09;99519.38;3137869;28;20060;-72
2023/04/22 05:08:51;;;;;;;20.27;12.00;;;;;;;12.48;78.77;99523.38;3144401;28;20444;-72
2023/04/22 05:10:24;;;;;;;23.30;11.27;;;;;;;12.50;78.80;99526.75;3144185;28;20048;-71
2023/04/22 05:11:55;;;;;;;20.93;11.30;;;;;;;12.51;78.62;99521.47;3128712;28;20071;-72
2023/04/22 05:13:29;;;;;;;22.17;11.25;;;;;;;12.58;78.93;99528.94;3139610;28;20044;-71
2023/04/22 05:15:01;;;;;;;22.83;11.25;;;;;;;12.51;78.87;99518.84;3135261;28;20498;-70
2023/04/22 05:16:33;;;;;;;24.08;11.55;;;;;;;12.64;78.95;99533.81;3143702;28;20143;-71
2023/04/22 05:18:05;;;;;;;15.13;9.40;;;;;;;12.66;78.48;99527.56;3144255;28;20059;-71
2023/04/22 05:19:37;;;;;;;21.83;10.07;;;;;;;12.77;78.44;99529.53;3142283;28;20131;-70
2023/04/22 05:21:09;;;;;;;14.15;8.90;;;;;;;12.93;78.21;99535.56;3134331;28;20045;-71
2023/04/22 05:22:42;;;;;;;15.70;8.63;;;;;;;13.07;77.69;99528.66;3140641;28;20235;-70
2023/04/22 05:24:12;;;;;;;16.08;8.05;;;;;;;13.17;77.35;99524.56;3146520;28;20052;-71
2023/04/22 05:25:44;;;;;;;15.40;7.93;;;;;;;13.34;76.62;99524.44;3141460;28;20545;-71
2023/04/22 05:27:16;;;;;;;15.85;8.27;;;;;;;13.50;75.96;99526.94;3138303;28;20121;-70
2023/04/22 05:28:49;;;;;;;18.15;7.78;;;;;;;13.67;75.31;99533.75;3146156;28;20045;-70
2023/04/22 05:30:21;;;;;;;14.93;7.70;;;;;;;13.80;75.00;99526.78;3141855;28;20117;-72
2023/04/22 05:31:52;;;;;;;10.73;6.45;;;;;;;13.86;74.55;99521.16;3146520;28;20445;-71
2023/04/22 05:33:24;;;;;;;19.33;7.38;;;;;;;14.10;73.97;99533.63;3140270;28;20098;-74
2023/04/22 05:34:56;;;;;;;14.80;8.18;;;;;;;14.24;73.73;99538.00;3134409;28;20049;-73
2023/04/22 05:36:28;;;;;;;16.83;7.88;;;;;;;14.27;72.83;99536.03;3136418;28;20072;-70
2023/04/22 05:38:00;;;;;;;12.02;7.68;;;;;;;14.29;72.63;99539.38;3135685;28;20049;-70
2023/04/22 05:39:32;;;;;;;11.27;6.57;;;;;;;14.34;72.56;99537.31;3146395;28;20063;-70
2023/04/22 05:41:04;;;;;;;10.43;6.43;;;;;;;14.42;72.29;99534.19;3146099;28;20056;-78
2023/04/22 05:42:35;;;;;;;11.35;6.25;;;;;;;14.48;71.69;99533.78;3146588;28;20591;-72
2023/04/22 05:44:09;;;;;;;15.27;5.82;;;;;;;14.63;71.52;99539.81;3146567;28;20048;-73
2023/04/22 05:45:39;;;;;;;63.70;28.00;;;;;;;14.62;70.94;99532.91;3127026;28;20049;-72
2023/04/22 05:47:11;;;;;;;16.85;9.50;;;;;;;14.70;70.92;99545.50;3127788;28;20096;-72
2023/04/22 05:48:42;;;;;;;61.58;26.73;;;;;;;14.46;70.58;99503.38;3127631;28;20691;-74
2023/04/22 05:50:14;;;;;;;121.63;61.78;;;;;;;14.71;70.55;99534.09;3127059;28;20125;-72
2023/04/22 05:51:45;;;;;;;20.20;9.88;;;;;;;14.78;70.26;99535.34;3126120;28;20123;-74
2023/04/22 05:53:17;;;;;;;11.27;6.85;;;;;;;14.87;69.86;99539.13;3126201;28;20068;-76
2023/04/22 05:54:48;;;;;;;13.40;6.03;;;;;;;14.88;69.76;99533.81;3127752;28;20590;-76
2023/04/22 05:56:21;;;;;;;12.00;6.25;;;;;;;14.70;69.36;99496.56;3128260;28;20056;-77
2023/04/22 05:57:52;;;;;;;11.80;7.05;;;;;;;14.76;69.23;99490.91;3125175;28;20146;-80
2023/04/22 05:59:26;;;;;;;61.63;35.58;;;;;;;15.15;68.52;99544.22;3127528;28;20115;-75
2023/04/22 06:00:58;;;;;;;23.45;15.93;;;;;;;15.22;68.47;99534.97;3126240;28;20137;-75
2023/04/22 06:02:30;;;;;;;14.98;9.10;;;;;;;15.33;68.19;99546.50;3126140;28;20056;-71
2023/04/22 06:04:03;;;;;;;14.38;8.27;;;;;;;15.42;67.98;99538.84;3126577;28;20057;-76
2023/04/22 06:05:35;;;;;;;14.20;6.95;;;;;;;15.53;67.79;99535.47;3125147;28;20172;-76
2023/04/22 06:07:07;;;;;;;10.05;6.57;;;;;;;15.69;67.34;99543.97;3131802;28;20102;-67
2023/04/22 06:08:39;;;;;;;10.55;6.93;;;;;;;15.65;67.25;99516.25;3143070;28;20049;-68
2023/04/22 06:10:11;;;;;;;8.20;5.80;;;;;;;15.95;66.84;99538.66;3127353;28;20053;-69
2023/04/22 06:11:43;;;;;;;9.82;6.13;;;;;;;16.11;66.34;99547.09;3124910;28;20114;-72
2023/04/22 06:13:14;;;;;;;13.40;6.30;;;;;;;16.27;65.94;99535.50;3132379;28;20155;-73
2023/04/22 06:14:48;;;;;;;11.27;5.65;;;;;;;16.35;65.05;99535.78;3145690;28;20441;-71
2023/04/22 06:16:19;;;;;;;11.95;6.15;;;;;;;16.41;64.86;99535.31;3145290;28;20118;-74
2023/04/22 06:17:50;;;;;;;11.30;6.05;;;;;;;16.50;64.38;99541.69;3145603;28;20487;-75
2023/04/22 06:19:23;;;;;;;9.30;5.55;;;;;;;16.55;64.23;99535.13;3144410;28;20048;-70
2023/04/22 06:20:54;;;;;;;12.55;5.10;;;;;;;16.71;63.85;99541.88;3142112;28;20095;-68
2023/04/22 06:22:26;;;;;;;10.52;6.13;;;;;;;16.86;63.53;99538.16;3137121;28;20048;-75
2023/04/22 06:23:58;;;;;;;8.80;6.22;;;;;;;16.99;63.46;99538.06;3141002;28;20044;-75
2023/04/22 06:25:30;;;;;;;13.30;4.90;;;;;;;17.05;62.70;99541.06;3145473;28;20080;-77
2023/04/22 06:27:02;;;;;;;10.55;5.30;;;;;;;17.10;62.31;99534.63;3145725;28;20131;-74
2023/04/22 06:28:34;;;;;;;11.40;5.65;;;;;;;17.18;61.87;99537.47;3145236;28;20048;-74
2023/04/22 06:30:08;;;;;;;9.38;5.55;;;;;;;17.23;61.32;99536.19;3140326;28;20044;-72
2023/04/22 06:31:40;;;;;;;11.98;6.05;;;;;;;17.28;61.05;99538.47;3145614;28;20040;-70
2023/04/22 06:33:13;;;;;;;12.43;6.05;;;;;;;17.15;60.81;99499.09;3144138;28;20048;-73
2023/04/22 06:34:45;;;;;;;10.30;5.43;;;;;;;17.39;60.80;99533.22;3140792;28;20064;-67
2023/04/22 06:36:16;;;;;;;11.18;5.65;;;;;;;17.47;60.41;99529.97;3145339;28;20314;-73
2023/04/22 06:37:48;;;;;;;10.50;6.22;;;;;;;17.52;60.11;99531.28;3145240;28;20052;-70
2023/04/22 06:39:20;;;;;;;11.73;6.65;;;;;;;17.59;60.08;99533.44;3145689;28;20052;-70
2023/04/22 06:40:52;;;;;;;9.73;5.88;;;;;;;17.64;59.76;99533.91;3145484;28;20492;-69
2023/04/22 06:42:24;;;;;;;11.20;5.25;;;;;;;17.70;59.32;99530.81;3145358;28;20063;-68
2023/04/22 06:43:56;;;;;;;9.15;5.28;;;;;;;17.74;58.67;99532.22;3145572;28;20076;-72
2023/04/22 06:45:29;;;;;;;12.98;5.93;;;;;;;17.79;58.24;99535.38;3145165;28;20107;-75
2023/04/22 06:47:01;;;;;;;9.25;5.35;;;;;;;17.84;58.37;99529.75;3145653;28;20047;-74
2023/04/22 06:48:33;;;;;;;13.27;6.60;;;;;;;17.71;58.14;99500.88;3141381;28;20048;-70
2023/04/22 06:50:06;;;;;;;12.80;7.18;;;;;;;17.90;57.83;99522.19;3134964;28;20052;-74
2023/04/22 06:51:38;;;;;;;12.60;6.90;;;;;;;17.85;57.54;99526.16;3140822;28;20060;-68
2023/04/22 06:53:10;;;;;;;13.90;6.88;;;;;;;17.85;57.59;99532.25;3145003;28;20410;-69
2023/04/22 06:54:43;;;;;;;16.23;6.82;;;;;;;17.87;57.49;99534.78;3145668;28;20052;-73
2023/04/22 06:56:14;;;;;;;10.70;6.57;;;;;;;17.86;57.16;99540.97;3145825;28;20066;-65
2023/04/22 06:57:47;;;;;;;12.50;7.53;;;;;;;17.83;56.96;99536.78;3145462;28;20063;-71
2023/04/22 06:59:18;;;;;;;10.93;5.78;;;;;;;17.80;57.06;99537.03;3141822;28;20053;-69
2023/04/22 07:00:52;;;;;;;11.13;6.20;;;;;;;17.81;56.97;99530.81;3136303;28;20080;-68
2023/04/22 07:02:23;;;;;;;10.48;6.43;;;;;;;17.65;57.05;99509.25;3136820;28;20434;-69
2023/04/22 07:03:54;;;;;;;12.63;6.50;;;;;;;17.84;56.72;99532.38;3134456;28;20078;-67
2023/04/22 07:05:26;;;;;;;24.35;14.88;;;;;;;17.81;56.79;99530.00;3130952;28;20442;-68